createdAt,value
2018-02-09T00:02:14.813Z,23.53
2018-02-09T00:04:43.038Z,23.20
2018-02-09T00:07:10.509Z,26.20
2018-02-09T00:09:37.958Z,23.53
2018-02-09T00:12:05.472Z,25.30
2018-02-09T00:14:32.917Z,22.77
2018-02-09T00:17:00.363Z,19.83
2018-02-09T00:19:27.820Z,25.20
2018-02-09T00:21:55.270Z,23.73
2018-02-09T00:24:22.731Z,26.43
2018-02-09T00:26:50.182Z,25.43
2018-02-09T00:29:17.655Z,24.60
2018-02-09T00:31:45.117Z,27.27
2018-02-09T00:34:12.587Z,22.03
2018-02-09T00:36:40.037Z,23.37
2018-02-09T00:39:07.498Z,24.20
2018-02-09T00:41:34.933Z,24.70
2018-02-09T00:44:03.178Z,24.13
2018-02-09T00:46:30.634Z,23.10
2018-02-09T00:48:58.084Z,23.83
2018-02-09T00:51:25.533Z,24.50
2018-02-09T00:53:53.005Z,23.47
2018-02-09T00:56:20.530Z,21.97
2018-02-09T00:58:48.746Z,22.60
2018-02-09T01:01:16.213Z,23.37
2018-02-09T01:03:43.670Z,24.47
2018-02-09T01:06:11.127Z,25.20
2018-02-09T01:08:38.589Z,20.97
2018-02-09T01:11:06.826Z,20.67
2018-02-09T01:13:34.291Z,22.07
2018-02-09T01:16:01.740Z,24.60
2018-02-09T01:18:29.182Z,23.73
2018-02-09T01:20:56.633Z,21.73
2018-02-09T01:23:24.107Z,23.53
2018-02-09T01:25:51.572Z,22.93
2018-02-09T01:28:19.032Z,23.27
2018-02-09T01:30:46.493Z,25.97
2018-02-09T01:33:13.956Z,23.00
2018-02-09T01:35:41.431Z,22.73
2018-02-09T01:38:08.884Z,21.63
2018-02-09T01:40:36.337Z,22.23
2018-02-09T01:43:03.799Z,22.30
2018-02-09T01:45:31.260Z,21.13
2018-02-09T01:47:58.699Z,21.23
2018-02-09T01:50:26.170Z,24.87
2018-02-09T01:52:53.630Z,26.70
2018-02-09T01:55:21.099Z,23.77
2018-02-09T01:57:48.555Z,24.27
2018-02-09T02:00:16.024Z,21.00
2018-02-09T02:02:43.485Z,21.70
2018-02-09T02:05:10.929Z,21.07
2018-02-09T02:07:38.387Z,21.03
2018-02-09T02:10:06.606Z,20.00
2018-02-09T02:12:34.050Z,20.07
2018-02-09T02:15:01.524Z,22.43
2018-02-09T02:17:28.979Z,20.17
2018-02-09T02:19:56.427Z,23.93
2018-02-09T02:22:23.882Z,21.93
2018-02-09T02:24:52.099Z,19.77
2018-02-09T02:27:19.571Z,22.30
2018-02-09T02:29:47.016Z,19.63
2018-02-09T02:32:14.473Z,21.10
2018-02-09T02:34:41.949Z,20.73
2018-02-09T02:37:09.395Z,21.23
2018-02-09T02:39:36.855Z,21.53
2018-02-09T02:42:04.315Z,23.23
2018-02-09T02:44:31.765Z,20.73
2018-02-09T02:46:59.227Z,19.40
2018-02-09T02:49:26.696Z,21.47
2018-02-09T02:51:54.172Z,20.80
2018-02-09T02:54:21.616Z,18.00
2018-02-09T02:56:49.103Z,18.30
2018-02-09T02:59:16.545Z,19.67
2018-02-09T03:01:44.000Z,19.50
2018-02-09T03:04:12.240Z,19.97
2018-02-09T03:06:39.696Z,20.63
2018-02-09T03:09:07.149Z,17.60
2018-02-09T03:11:34.610Z,20.40
2018-02-09T03:14:02.069Z,18.73
2018-02-09T03:16:29.513Z,17.83
2018-02-09T03:18:56.956Z,19.27
2018-02-09T03:21:25.186Z,19.13
2018-02-09T03:23:52.643Z,19.97
2018-02-09T03:26:20.089Z,17.53
2018-02-09T03:28:47.546Z,17.63
2018-02-09T03:31:15.017Z,18.80
2018-02-09T03:33:42.475Z,19.77
2018-02-09T03:36:09.920Z,21.07
2018-02-09T03:38:37.383Z,18.13
2018-02-09T03:41:04.839Z,18.37
2018-02-09T03:43:33.073Z,17.20
2018-02-09T03:46:00.524Z,16.87
2018-02-09T03:48:27.981Z,17.67
2018-02-09T03:50:55.437Z,16.60
2018-02-09T03:53:22.911Z,17.60
2018-02-09T03:55:50.367Z,17.80
2018-02-09T03:58:17.814Z,16.97
2018-02-09T04:00:45.266Z,19.97
2018-02-09T04:03:12.780Z,18.43
2018-02-09T04:05:40.246Z,19.13
2018-02-09T04:08:07.742Z,19.37
2018-02-09T04:10:35.953Z,18.93
2018-02-09T04:13:03.411Z,17.37
2018-02-09T04:15:30.874Z,16.77
2018-02-09T04:17:58.331Z,17.57
2018-02-09T04:20:25.793Z,16.73
2018-02-09T04:22:53.252Z,20.63
2018-02-09T04:25:20.697Z,20.20
2018-02-09T04:27:48.937Z,17.00
2018-02-09T04:30:16.375Z,17.90
2018-02-09T04:32:43.827Z,18.53
2018-02-09T04:35:11.292Z,18.90
2018-02-09T04:37:38.758Z,16.43
2018-02-09T04:40:06.215Z,21.07
2018-02-09T04:42:33.670Z,19.30
2018-02-09T04:45:01.122Z,18.83
2018-02-09T04:47:28.574Z,20.80
2018-02-09T04:49:56.800Z,18.07
2018-02-09T04:52:24.253Z,19.63
2018-02-09T04:54:51.709Z,17.33
2018-02-09T04:57:19.167Z,19.47
2018-02-09T04:59:46.648Z,19.73
2018-02-09T05:02:14.114Z,20.57
2018-02-09T05:04:41.577Z,16.90
2018-02-09T05:07:09.046Z,19.13
2018-02-09T05:09:36.508Z,21.23
2018-02-09T05:12:03.961Z,19.40
2018-02-09T05:14:31.413Z,20.03
2018-02-09T05:16:58.876Z,20.07
2018-02-09T05:19:26.335Z,21.37
2018-02-09T05:21:53.799Z,23.10
2018-02-09T05:24:21.257Z,23.30
2018-02-09T05:26:48.735Z,18.73
2018-02-09T05:29:16.205Z,20.37
2018-02-09T05:31:43.688Z,23.60
2018-02-09T05:34:11.160Z,21.43
2018-02-09T05:36:38.625Z,21.17
2018-02-09T05:39:06.062Z,24.50
2018-02-09T05:41:33.546Z,21.90
2018-02-09T05:44:00.998Z,21.20
2018-02-09T05:46:28.464Z,21.87
2018-02-09T05:48:55.912Z,21.90
2018-02-09T05:51:23.390Z,21.63
2018-02-09T05:53:50.841Z,20.00
2018-02-09T05:56:18.293Z,22.90
2018-02-09T05:58:45.769Z,24.77
2018-02-09T06:01:13.221Z,22.67
2018-02-09T06:03:40.679Z,22.50
2018-02-09T06:06:08.125Z,25.10
2018-02-09T06:08:35.862Z,25.67
2018-02-09T06:11:03.303Z,24.57
2018-02-09T06:13:30.768Z,22.70
2018-02-09T06:15:58.221Z,24.13
2018-02-09T06:18:26.175Z,23.13
2018-02-09T06:20:53.619Z,25.00
2018-02-09T06:23:21.075Z,25.20
2018-02-09T06:25:48.522Z,26.13
2018-02-09T06:28:16.754Z,24.03
2018-02-09T06:30:44.205Z,26.87
2018-02-09T06:33:11.680Z,28.13
2018-02-09T06:35:39.150Z,25.93
2018-02-09T06:38:06.621Z,24.07
2018-02-09T06:40:34.069Z,25.07
2018-02-09T06:43:01.530Z,25.37
2018-02-09T06:45:28.982Z,26.17
2018-02-09T06:47:56.453Z,23.33
2018-02-09T06:50:23.910Z,20.60
2018-02-09T06:52:51.388Z,21.57
2018-02-09T06:55:18.853Z,25.97
2018-02-09T06:57:54.891Z,23.50
2018-02-09T07:00:22.364Z,21.33
2018-02-09T07:02:49.818Z,26.03
2018-02-09T07:05:17.279Z,21.93
2018-02-09T07:07:44.746Z,21.13
2018-02-09T07:10:12.198Z,22.30
2018-02-09T07:12:39.665Z,20.53
2018-02-09T07:15:07.158Z,20.90
2018-02-09T07:17:34.625Z,20.50
2018-02-09T07:20:02.084Z,21.30
2018-02-09T07:22:29.551Z,23.33
2018-02-09T07:24:57.014Z,21.13
2018-02-09T07:27:24.487Z,19.83
2018-02-09T07:29:51.938Z,19.73
2018-02-09T07:32:19.399Z,21.00
2018-02-09T07:34:46.867Z,18.60
2018-02-09T07:37:14.323Z,20.40
2018-02-09T07:39:41.772Z,19.40
2018-02-09T07:42:09.242Z,20.67
2018-02-09T07:44:36.703Z,18.20
2018-02-09T07:47:04.162Z,18.43
2018-02-09T07:49:31.621Z,19.23
2018-02-09T07:51:59.087Z,16.83
2018-02-09T07:54:26.545Z,18.60
2018-02-09T07:56:53.989Z,20.13
2018-02-09T07:59:21.464Z,18.07
2018-02-09T08:01:48.922Z,19.07
2018-02-09T08:04:16.370Z,19.17
2018-02-09T08:06:43.832Z,18.40
2018-02-09T08:09:11.292Z,18.80
2018-02-09T08:11:38.753Z,20.30
2018-02-09T08:14:06.174Z,18.30
2018-02-09T08:16:34.395Z,16.17
2018-02-09T08:19:01.849Z,17.53
2018-02-09T08:21:29.329Z,18.70
2018-02-09T08:23:56.772Z,16.93
2018-02-09T08:26:24.217Z,17.47
2018-02-09T08:28:52.445Z,15.43
2018-02-09T08:31:20.841Z,14.63
2018-02-09T08:33:48.914Z,16.43
2018-02-09T08:36:16.402Z,15.23
2018-02-09T08:38:43.854Z,18.55
2018-02-09T08:41:11.311Z,18.53
2018-02-09T08:43:38.769Z,15.70
2018-02-09T08:46:06.223Z,15.90
2018-02-09T08:48:33.665Z,16.73
2018-02-09T08:51:01.130Z,15.47
2018-02-09T08:53:28.591Z,17.17
2018-02-09T08:55:56.054Z,14.67
2018-02-09T08:58:23.502Z,14.23
2018-02-09T09:00:50.962Z,16.77
2018-02-09T09:03:18.430Z,15.50
2018-02-09T09:05:45.879Z,16.63
2018-02-09T09:08:14.123Z,16.07
2018-02-09T09:10:41.559Z,14.83
2018-02-09T09:13:09.009Z,15.80
2018-02-09T09:15:36.463Z,14.83
2018-02-09T09:18:03.920Z,15.93
2018-02-09T09:20:31.376Z,16.60
2018-02-09T09:22:58.857Z,15.37
2018-02-09T09:25:26.311Z,13.83
2018-02-09T09:27:53.764Z,14.80
2018-02-09T09:30:22.009Z,14.70
2018-02-09T09:32:49.466Z,14.87
2018-02-09T09:35:16.926Z,16.00
2018-02-09T09:37:44.395Z,14.87
2018-02-09T09:40:11.860Z,15.83
2018-02-09T09:42:39.307Z,14.77
2018-02-09T09:45:06.787Z,16.30
2018-02-09T09:47:34.251Z,15.57
2018-02-09T09:50:01.699Z,17.53
2018-02-09T09:52:29.153Z,15.13
2018-02-09T09:54:56.620Z,17.10
2018-02-09T09:57:24.079Z,18.00
2018-02-09T09:59:51.529Z,16.37
2018-02-09T10:02:30.771Z,15.67
2018-02-09T10:04:58.216Z,16.93
2018-02-09T10:07:25.714Z,17.73
2018-02-09T10:09:53.134Z,15.40
2018-02-09T10:12:20.588Z,15.10
2018-02-09T10:14:48.031Z,16.67
2018-02-09T10:17:19.267Z,17.07
2018-02-09T10:19:46.731Z,15.60
2018-02-09T10:22:14.230Z,17.73
2018-02-09T10:24:41.723Z,20.07
2018-02-09T10:27:09.191Z,18.33
2018-02-09T10:29:36.634Z,17.97
2018-02-09T10:32:04.089Z,18.47
2018-02-09T10:34:31.557Z,20.13
2018-02-09T10:36:59.011Z,17.40
2018-02-09T10:39:26.521Z,18.03
2018-02-09T10:41:53.965Z,21.60
2018-02-09T10:44:21.415Z,21.83
2018-02-09T10:46:48.874Z,23.43
2018-02-09T10:49:16.341Z,19.93
2018-02-09T10:51:43.802Z,18.27
2018-02-09T10:54:11.278Z,19.20
2018-02-09T10:56:38.767Z,22.30
2018-02-09T10:59:06.180Z,18.20
2018-02-09T11:01:36.539Z,22.77
2018-02-09T11:04:03.992Z,19.93
2018-02-09T11:06:31.455Z,20.87
2018-02-09T11:08:58.915Z,23.33
2018-02-09T11:11:27.092Z,18.83
2018-02-09T11:13:54.559Z,20.80
2018-02-09T11:16:22.004Z,23.30
2018-02-09T11:18:49.475Z,18.80
2018-02-09T11:21:16.924Z,24.90
2018-02-09T11:23:44.386Z,19.17
2018-02-09T11:26:11.818Z,20.70
2018-02-09T11:28:40.881Z,28.33
2018-02-09T11:31:08.326Z,24.73
2018-02-09T11:33:35.796Z,19.77
2018-02-09T11:36:03.254Z,23.30
2018-02-09T11:38:30.711Z,23.33
2018-02-09T11:40:58.162Z,25.70
2018-02-09T11:43:25.617Z,21.00
2018-02-09T11:45:53.096Z,24.07
2018-02-09T11:48:20.578Z,22.83
2018-02-09T11:50:48.000Z,22.33
2018-02-09T11:53:15.474Z,23.00
2018-02-09T11:55:42.921Z,24.47
2018-02-09T11:58:10.376Z,25.10
2018-02-09T12:00:38.604Z,23.37
2018-02-09T12:03:06.057Z,24.43
2018-02-09T12:05:33.493Z,24.50
2018-02-09T12:08:00.960Z,26.30
2018-02-09T12:10:28.436Z,28.67
2018-02-09T12:12:55.882Z,24.13
2018-02-09T12:15:23.323Z,27.03
2018-02-09T12:17:51.569Z,22.27
2018-02-09T12:20:19.776Z,25.90
2018-02-09T12:22:47.997Z,24.13
2018-02-09T12:25:15.445Z,24.33
2018-02-09T12:27:42.947Z,25.63
2018-02-09T12:30:10.409Z,25.37
2018-02-09T12:32:37.916Z,25.80
2018-02-09T12:35:05.344Z,25.17
2018-02-09T12:37:32.819Z,26.17
2018-02-09T12:40:00.276Z,25.53
2018-02-09T12:42:27.771Z,27.57
2018-02-09T12:44:56.290Z,29.10
2018-02-09T12:47:23.543Z,28.43
2018-02-09T12:49:51.035Z,26.53
2018-02-09T12:52:18.505Z,31.63
2018-02-09T12:54:45.957Z,27.80
2018-02-09T12:57:13.423Z,27.67
2018-02-09T12:59:40.913Z,24.43
2018-02-09T13:02:08.395Z,27.80
2018-02-09T13:04:36.640Z,25.67
2018-02-09T13:07:04.085Z,25.57
2018-02-09T13:09:31.563Z,31.47
2018-02-09T13:11:59.008Z,28.23
2018-02-09T13:14:38.420Z,31.03
2018-02-09T13:17:05.889Z,28.20
2018-02-09T13:19:33.351Z,27.93
2018-02-09T13:22:00.811Z,29.43
2018-02-09T13:24:28.286Z,28.27
2018-02-09T13:26:55.752Z,28.87
2018-02-09T13:29:23.190Z,30.60
2018-02-09T13:31:50.652Z,31.67
2018-02-09T13:34:18.112Z,29.60
2018-02-09T13:39:55.738Z,32.00
2018-02-09T13:42:23.194Z,28.83
2018-02-09T13:44:50.638Z,29.50
2018-02-09T13:47:18.087Z,29.43
2018-02-09T13:49:46.311Z,28.43
2018-02-09T13:52:13.769Z,29.50
2018-02-09T13:54:41.221Z,26.60
2018-02-09T13:57:08.662Z,28.67
2018-02-09T13:59:36.897Z,28.77
2018-02-09T14:02:04.376Z,30.70
2018-02-09T14:04:31.839Z,30.33
2018-02-09T14:06:59.282Z,31.07
2018-02-09T14:09:26.738Z,32.33
2018-02-09T14:11:54.209Z,30.83
2018-02-09T14:14:21.654Z,33.53
2018-02-09T14:16:49.129Z,30.77
2018-02-09T14:19:16.565Z,32.33
2018-02-09T14:21:44.041Z,30.63
2018-02-09T14:24:11.515Z,36.22
2018-02-09T14:26:38.977Z,30.47
2018-02-09T14:29:06.483Z,30.40
2018-02-09T14:31:34.714Z,29.77
2018-02-09T14:34:02.159Z,29.70
2018-02-09T14:36:29.638Z,33.27
2018-02-09T14:38:57.088Z,30.57
2018-02-09T14:41:24.561Z,30.57
2018-02-09T14:43:52.022Z,31.17
2018-02-09T14:46:19.471Z,33.23
2018-02-09T14:48:46.939Z,33.13
2018-02-09T14:51:14.396Z,33.43
2018-02-09T14:53:41.864Z,29.90
2018-02-09T14:56:09.323Z,31.43
2018-02-09T14:58:36.783Z,29.67
2018-02-09T15:01:04.264Z,31.07
2018-02-09T15:06:07.382Z,33.47
2018-02-09T15:08:34.864Z,29.27
2018-02-09T15:11:02.304Z,34.80
2018-02-09T15:13:29.763Z,30.30
2018-02-09T15:15:57.235Z,33.17
2018-02-09T15:18:24.695Z,36.17
2018-02-09T15:20:52.138Z,35.80
2018-02-09T15:23:19.627Z,34.67
2018-02-09T15:25:47.086Z,36.53
2018-02-09T15:28:14.528Z,37.57
2018-02-09T15:30:41.992Z,32.70
2018-02-09T15:33:09.450Z,31.50
2018-02-09T15:35:36.909Z,34.77
2018-02-09T15:38:04.350Z,32.30
2018-02-09T15:40:32.574Z,33.73
2018-02-09T15:43:00.024Z,34.47
2018-02-09T15:45:27.460Z,33.50
2018-02-09T15:47:55.684Z,35.63
2018-02-09T15:50:23.120Z,33.63
2018-02-09T15:52:50.562Z,32.90
2018-02-09T15:55:18.773Z,31.03
2018-02-09T15:57:46.234Z,32.43
2018-02-09T16:00:13.690Z,34.67
2018-02-09T16:02:41.220Z,31.07
2018-02-09T16:05:08.637Z,30.70
2018-02-09T16:07:36.100Z,33.53
2018-02-09T16:10:03.564Z,33.63
2018-02-09T16:12:31.045Z,30.30
2018-02-09T16:14:58.477Z,29.70
2018-02-09T16:17:25.930Z,28.13
2018-02-09T16:19:53.397Z,29.00
2018-02-09T16:22:20.871Z,31.27
2018-02-09T16:24:48.316Z,34.23
2018-02-09T16:27:15.805Z,32.17
2018-02-09T16:29:43.271Z,26.77
2018-02-09T16:32:10.730Z,30.13
2018-02-09T16:34:38.211Z,31.83
2018-02-09T16:37:05.660Z,29.73
2018-02-09T16:39:33.120Z,31.07
2018-02-09T16:42:00.593Z,31.40
2018-02-09T16:44:28.061Z,26.87
2018-02-09T16:46:55.511Z,30.53
2018-02-09T16:49:22.959Z,31.50
2018-02-09T16:51:50.407Z,29.50
2018-02-09T16:54:17.852Z,29.60
2018-02-09T16:56:45.323Z,29.27
2018-02-09T16:59:12.795Z,29.77
2018-02-09T17:01:40.315Z,29.57
2018-02-09T17:04:07.804Z,31.03
2018-02-09T17:06:35.215Z,29.77
2018-02-09T17:09:02.669Z,30.47
2018-02-09T17:11:30.142Z,32.57
2018-02-09T17:13:57.612Z,26.87
2018-02-09T17:16:25.068Z,30.53
2018-02-09T17:18:52.531Z,33.13
2018-02-09T17:21:20.006Z,30.53
2018-02-09T17:23:47.458Z,30.33
2018-02-09T17:26:14.916Z,32.90
2018-02-09T17:28:42.377Z,30.00
2018-02-09T17:31:09.877Z,28.60
2018-02-09T17:33:38.117Z,32.40
2018-02-09T17:36:05.596Z,28.47
2018-02-09T17:38:33.060Z,31.67
2018-02-09T17:41:00.510Z,31.37
2018-02-09T17:43:27.984Z,30.70
2018-02-09T17:45:55.438Z,31.33
2018-02-09T17:48:22.903Z,28.43
2018-02-09T17:50:51.159Z,28.80
2018-02-09T17:53:18.664Z,30.63
2018-02-09T17:55:46.906Z,34.20
2018-02-09T17:58:14.361Z,34.90
2018-02-09T18:00:41.808Z,33.63
2018-02-09T18:03:09.266Z,32.20
2018-02-09T18:05:36.726Z,29.47
2018-02-09T18:08:05.799Z,33.77
2018-02-09T18:10:33.243Z,33.00
2018-02-09T18:13:00.698Z,34.00
2018-02-09T18:15:28.150Z,28.93
2018-02-09T18:17:56.395Z,30.03
2018-02-09T18:20:24.607Z,31.67
2018-02-09T18:22:52.064Z,31.20
2018-02-09T18:25:19.516Z,32.33
2018-02-09T18:27:46.985Z,27.53
2018-02-09T18:30:14.441Z,32.33
2018-02-09T18:32:41.921Z,30.47
2018-02-09T18:35:09.462Z,30.23
2018-02-09T18:37:36.929Z,30.53
2018-02-09T18:40:04.424Z,30.60
2018-02-09T18:42:32.806Z,30.03
2018-02-09T18:45:00.270Z,33.17
2018-02-09T18:47:27.737Z,30.83
2018-02-09T18:49:55.242Z,28.60
2018-02-09T18:52:23.491Z,27.97
2018-02-09T18:54:50.974Z,27.23
2018-02-09T18:57:18.426Z,28.57
2018-02-09T18:59:45.892Z,31.20
2018-02-09T19:02:13.358Z,28.93
2018-02-09T19:04:40.812Z,28.73
2018-02-09T19:07:08.330Z,26.07
2018-02-09T19:09:35.792Z,28.40
2018-02-09T19:12:03.255Z,30.83
2018-02-09T19:14:30.700Z,27.30
2018-02-09T19:16:58.183Z,29.67
2018-02-09T19:19:25.646Z,28.77
2018-02-09T19:21:53.116Z,28.43
2018-02-09T19:24:20.610Z,28.23
2018-02-09T19:26:48.116Z,29.10
2018-02-09T19:29:16.334Z,29.33
2018-02-09T19:31:43.803Z,29.43
2018-02-09T19:34:11.277Z,30.90
2018-02-09T19:36:38.726Z,28.23
2018-02-09T19:39:06.195Z,28.50
2018-02-09T19:41:33.671Z,27.00
2018-02-09T19:44:01.159Z,32.50
2018-02-09T19:46:29.375Z,27.37
2018-02-09T19:48:56.833Z,25.73
2018-02-09T19:51:24.319Z,28.90
2018-02-09T19:53:51.773Z,34.23
2018-02-09T19:56:19.234Z,30.80
2018-02-09T19:58:46.729Z,30.33
2018-02-09T20:01:14.208Z,30.20
2018-02-09T20:03:41.675Z,29.53
2018-02-09T20:06:09.905Z,30.40
2018-02-09T20:08:37.371Z,30.97
2018-02-09T20:11:04.857Z,29.27
2018-02-09T20:13:32.302Z,27.67
2018-02-09T20:15:59.764Z,29.23
2018-02-09T20:18:27.239Z,29.50
2018-02-09T20:20:54.714Z,33.83
2018-02-09T20:23:22.169Z,32.20
2018-02-09T20:25:49.631Z,29.40
2018-02-09T20:28:17.093Z,28.17
2018-02-09T20:30:44.562Z,28.70
2018-02-09T20:33:12.013Z,29.50
2018-02-09T20:35:39.475Z,31.30
2018-02-09T20:38:06.963Z,29.80
2018-02-09T20:40:34.420Z,26.70
2018-02-09T20:43:01.892Z,27.83
2018-02-09T20:45:29.342Z,30.20
2018-02-09T20:47:56.802Z,30.97
2018-02-09T20:50:24.245Z,30.10
2018-02-09T20:52:51.710Z,30.97
2018-02-09T20:55:19.147Z,30.60
2018-02-09T20:57:46.662Z,33.07
2018-02-09T21:00:14.115Z,33.73
2018-02-09T21:02:41.589Z,29.13
2018-02-09T21:05:09.066Z,31.03
2018-02-09T21:07:36.669Z,29.63
2018-02-09T21:10:04.143Z,28.83
2018-02-09T21:12:31.640Z,32.23
2018-02-09T21:14:59.075Z,33.30
2018-02-09T21:17:26.537Z,28.67
2018-02-09T21:19:54.018Z,28.50
2018-02-09T21:22:21.460Z,30.50
2018-02-09T21:24:48.938Z,29.60
2018-02-09T21:27:16.361Z,29.67
2018-02-09T21:29:43.825Z,27.00
2018-02-09T21:32:11.275Z,30.47
2018-02-09T21:34:38.745Z,28.80
2018-02-09T21:37:06.215Z,29.70
2018-02-09T21:39:33.681Z,30.33
2018-02-09T21:42:01.124Z,27.87
2018-02-09T21:44:29.343Z,29.50
2018-02-09T21:46:56.810Z,31.23
2018-02-09T21:49:24.286Z,34.13
2018-02-09T21:51:51.739Z,27.13
2018-02-09T21:54:19.200Z,26.83
2018-02-09T21:56:46.654Z,28.80
2018-02-09T21:59:14.112Z,30.07
2018-02-09T22:01:41.578Z,31.17
2018-02-09T22:04:09.026Z,29.87
2018-02-09T22:06:36.466Z,27.90
2018-02-09T22:09:04.704Z,27.37
2018-02-09T22:11:32.146Z,30.30
2018-02-09T22:13:59.618Z,30.47
2018-02-09T22:16:27.089Z,30.43
2018-02-09T22:18:54.553Z,31.67
2018-02-09T22:21:22.023Z,31.13
2018-02-09T22:23:49.481Z,26.87
2018-02-09T22:26:16.937Z,28.97
2018-02-09T22:28:44.390Z,31.40
2018-02-09T22:31:11.866Z,29.57
2018-02-09T22:33:39.323Z,30.27
2018-02-09T22:36:06.781Z,29.97
2018-02-09T22:38:34.234Z,28.77
2018-02-09T22:41:01.704Z,28.37
2018-02-09T22:43:29.171Z,29.13
2018-02-09T22:45:56.631Z,31.40
2018-02-09T22:48:24.088Z,29.07
2018-02-09T22:50:51.542Z,30.70
2018-02-09T22:53:18.989Z,32.70
2018-02-09T22:55:46.462Z,30.03
2018-02-09T22:58:13.924Z,32.83
2018-02-09T23:00:41.389Z,30.10
2018-02-09T23:03:08.831Z,29.47
2018-02-09T23:05:37.062Z,30.37
2018-02-09T23:08:04.524Z,29.47
2018-02-09T23:10:31.978Z,28.93
2018-02-09T23:12:59.439Z,31.20
2018-02-09T23:15:26.902Z,30.83
2018-02-09T23:17:54.368Z,29.17
2018-02-09T23:20:21.813Z,31.37
2018-02-09T23:22:49.260Z,30.70
2018-02-09T23:25:16.726Z,34.20
2018-02-09T23:27:44.185Z,31.13
2018-02-09T23:30:11.641Z,32.60
2018-02-09T23:32:39.116Z,31.80
2018-02-09T23:35:06.552Z,30.60
2018-02-09T23:37:34.792Z,31.57
2018-02-09T23:40:02.244Z,32.33
2018-02-09T23:42:29.719Z,32.03
2018-02-09T23:44:57.176Z,31.37
2018-02-09T23:47:24.644Z,31.00
2018-02-09T23:49:52.122Z,30.90
2018-02-09T23:52:19.582Z,31.70
2018-02-09T23:54:47.022Z,33.20
2018-02-09T23:57:14.480Z,33.43
2018-02-09T23:59:41.945Z,33.30
